x

Scilly St Marys (03803) Weather Station

6:00am - Thu 15th Nov 2018 All times are GMT.

  • Wind
    24mph, 32mph gusts
  • Air Temp 52°f
  • Sea Pressure 1014mb
  • Scilly St Marys
  • Scilly St Marys

More Historic Weather Station data

Upgrade to MSW Pro to gain access to the past 30 days of data for over 8000 Wavebouys and Weather Stations around the globe.

Join

Comparision Forecast

View Surf forecast
   
Thu 11/15 6:00am 24 32 mph 1014mb 52f
5:00am 25 31 mph 1014mb 54f
4:00am 25 31 mph 1014mb 54f
3:00am 23 33 mph 1015mb 54f
2:00am 25 33 mph 1015mb 54f
1:00am 24 33 mph 1015mb 54f
12:00am 25 33 mph 1015mb 54f
Wed 11/14 11:00pm 23 31 mph 1015mb 54f
10:00pm 22 30 mph 1015mb 54f
9:00pm 25 32 mph 1016mb 54f
8:00pm 22
mph
1016mb 54f
7:00pm 23 36 mph 1016mb 54f
6:00pm 25 34 mph 1015mb 54f
5:00pm 24 31 mph 1015mb 54f
4:00pm 24 31 mph 1015mb 55f
3:00pm 24 33 mph 1015mb 55f
2:00pm 25 34 mph 1016mb 55f
1:00pm 28 37 mph 1016mb 55f
12:00pm 29 38 mph 1016mb 55f
11:00am 30 38 mph 1017mb 55f
10:00am 30 38 mph 1017mb 55f
9:00am 31 39 mph 1017mb 55f
8:00am 30 41 mph 1017mb 54f
7:00am 31 38 mph 1016mb 54f
6:00am 30 40 mph 1017mb 54f
5:00am 34 43 mph 1017mb 54f
4:00am 33 41 mph 1017mb 55f
3:00am 36 45 mph 1017mb 55f
2:00am 34 45 mph 1017mb 55f
1:00am 37 45 mph 1018mb 55f
12:00am 36 44 mph 1018mb 55f
Tue 11/13 11:00pm 34 44 mph 1019mb 55f
10:00pm 36 43 mph 1019mb 54f
9:00pm 34 44 mph 1019mb 54f
8:00pm 33 40 mph 1019mb 54f
7:00pm 31 38 mph 1020mb 54f
6:00pm 30 34 mph 1020mb 54f
5:00pm 29 36 mph 1020mb 54f
4:00pm 29 34 mph 1020mb 54f
3:00pm 28 32 mph 1020mb 55f
2:00pm 24 29 mph 1021mb 55f
1:00pm 23
mph
1021mb 55f
12:00pm 22
mph
1021mb 55f
11:00am 17
mph
1021mb 55f
10:00am 18
mph
1021mb 54f
9:00am 16
mph
1021mb 54f
8:00am 15
mph
1020mb 52f
7:00am 16
mph
1019mb 52f
6:00am 15
mph
1019mb 52f
5:00am 17
mph
1018mb 52f
4:00am 17
mph
1017mb 52f
3:00am 19 31 mph 1016mb 52f
2:00am 19 31 mph 1015mb 52f
1:00am 23 32 mph 1014mb 52f
12:00am 21 30 mph 1014mb 52f
Mon 11/12 11:00pm 22 31 mph 1013mb 52f
10:00pm 21 31 mph 1012mb 52f
9:00pm 25 33 mph 1011mb 52f
8:00pm 28 38 mph 1010mb 52f
7:00pm 23 37 mph 1010mb 52f
6:00pm 28 38 mph 1009mb 52f
5:00pm 26 44 mph 1008mb 52f
4:00pm 23 39 mph 1008mb 50f
3:00pm 30 43 mph 1007mb 54f
2:00pm 28 39 mph 1006mb 54f
1:00pm 31 39 mph 1006mb 54f
12:00pm 28 38 mph 1006mb 54f
11:00am 26 38 mph 1006mb 54f
10:00am 29 41 mph 1005mb 54f
9:00am 26 37 mph 1005mb 52f
8:00am 25 37 mph 1005mb 52f
7:00am 26 38 mph 1004mb 52f
6:00am 28 44 mph 1004mb 52f
5:00am 23 33 mph 1003mb 52f
4:00am 23 34 mph 1003mb 54f
3:00am 28 39 mph 1002mb 52f
2:00am 24 32 mph 1002mb 54f
1:00am 23 31 mph 1002mb 54f
12:00am 22 32 mph 1002mb 54f
Sun 11/11 11:00pm 23 34 mph 1001mb 54f
10:00pm 21 32 mph 1002mb 52f
9:00pm 26 36 mph 1001mb 54f
8:00pm 25 33 mph 1001mb 54f
7:00pm 25 34 mph 1000mb 54f
6:00pm 25 37 mph 1000mb 52f
5:00pm 25 34 mph 999mb 54f
4:00pm 24 33 mph 998mb 54f
3:00pm 23 36 mph 998mb 55f
2:00pm 26 34 mph 998mb 55f
1:00pm 23 33 mph 997mb 55f
12:00pm 24 34 mph 997mb 55f
11:00am 25 32 mph 997mb 55f
10:00am 22 31 mph 996mb 54f
9:00am 21 32 mph 995mb 52f
8:00am 25 34 mph 994mb 52f
7:00am 23 36 mph 993mb 52f